createdAt,value
2018-12-01T00:00:29.347Z,21.73
2018-12-01T00:02:58.204Z,24.53
2018-12-01T00:05:26.530Z,27.23
2018-12-01T00:07:55.341Z,23.33
2018-12-01T00:10:23.681Z,19.87
2018-12-01T00:12:52.139Z,22.37
2018-12-01T00:15:22.587Z,17.23
2018-12-01T00:17:51.291Z,20.83
2018-12-01T00:20:20.705Z,17.70
2018-12-01T00:22:49.420Z,15.63
2018-12-01T00:25:17.866Z,22.50
2018-12-01T00:27:46.327Z,20.03
2018-12-01T00:30:17.466Z,26.97
2018-12-01T00:32:46.865Z,20.13
2018-12-01T00:35:15.474Z,26.33
2018-12-01T00:37:43.923Z,26.13
2018-12-01T00:40:17.284Z,24.60
2018-12-01T00:42:45.952Z,23.77
2018-12-01T00:45:15.354Z,26.67
2018-12-01T00:47:44.502Z,29.20
2018-12-01T00:50:14.000Z,27.97
2018-12-01T00:52:42.405Z,25.67
2018-12-01T00:55:12.219Z,26.30
2018-12-01T00:57:40.535Z,29.73
2018-12-01T01:00:14.700Z,27.93
2018-12-01T01:02:43.027Z,30.80
2018-12-01T01:05:11.364Z,27.47
2018-12-01T01:07:39.723Z,23.47
2018-12-01T01:10:09.695Z,25.20
2018-12-01T01:12:38.127Z,24.17
2018-12-01T01:15:07.612Z,28.13
2018-12-01T01:17:36.340Z,31.80
2018-12-01T01:20:08.591Z,29.33
2018-12-01T01:22:36.894Z,24.93
2018-12-01T01:25:05.767Z,28.37
2018-12-01T01:27:34.067Z,25.87
2018-12-01T01:30:07.588Z,24.63
2018-12-01T01:32:35.918Z,28.50
2018-12-01T01:35:04.200Z,27.27
2018-12-01T01:37:32.493Z,28.93
2018-12-01T01:40:00.785Z,20.57
2018-12-01T01:42:29.162Z,26.60
2018-12-01T01:44:57.695Z,24.97
2018-12-01T01:47:26.024Z,24.33
2018-12-01T01:49:54.299Z,29.37
2018-12-01T01:52:28.239Z,20.57
2018-12-01T01:54:56.531Z,22.47
2018-12-01T01:57:24.876Z,19.20
2018-12-01T01:59:53.143Z,28.50
2018-12-01T02:02:21.456Z,22.23
2018-12-01T02:04:49.766Z,23.53
2018-12-01T02:07:18.059Z,23.67
2018-12-01T02:09:46.414Z,26.57
2018-12-01T02:12:14.735Z,21.93
2018-12-01T02:17:39.288Z,23.80
2018-12-01T02:20:14.860Z,28.83
2018-12-01T02:22:43.170Z,25.47
2018-12-01T02:25:12.537Z,23.43
2018-12-01T02:27:41.399Z,26.27
2018-12-01T02:30:10.955Z,25.90
2018-12-01T02:32:39.609Z,25.77
2018-12-01T02:35:10.573Z,32.93
2018-12-01T02:37:38.942Z,32.23
2018-12-01T02:40:09.451Z,34.13
2018-12-01T02:42:37.838Z,26.87
2018-12-01T02:47:21.123Z,26.03
2018-12-01T02:49:49.472Z,21.70
2018-12-01T02:52:17.822Z,27.57
2018-12-01T02:54:46.095Z,22.07
2018-12-01T02:57:14.416Z,26.10
2018-12-01T02:59:42.699Z,22.70
2018-12-01T03:02:14.023Z,26.50
2018-12-01T03:04:42.351Z,26.57
2018-12-01T03:07:10.628Z,27.60
2018-12-01T03:09:38.930Z,27.07
2018-12-01T03:12:07.240Z,27.53
2018-12-01T03:14:35.536Z,28.70
2018-12-01T03:17:33.132Z,27.30
2018-12-01T03:20:01.556Z,25.33
2018-12-01T03:22:29.893Z,22.90
2018-12-01T03:24:58.299Z,30.87
2018-12-01T03:27:30.821Z,24.17
2018-12-01T03:29:59.116Z,26.17
2018-12-01T03:32:27.502Z,24.90
2018-12-01T03:34:55.768Z,23.77
2018-12-01T03:37:24.034Z,26.13
2018-12-01T03:39:52.377Z,31.30
2018-12-01T03:42:20.674Z,27.43
2018-12-01T03:44:48.999Z,26.00
2018-12-01T03:47:17.461Z,23.70
2018-12-01T03:49:45.922Z,29.37
2018-12-01T03:52:14.336Z,25.13
2018-12-01T03:54:42.946Z,24.57
2018-12-01T03:57:11.211Z,30.17
2018-12-01T03:59:39.639Z,29.23
2018-12-01T04:02:07.953Z,28.20
2018-12-01T04:04:36.241Z,28.43
2018-12-01T04:07:04.670Z,26.30
2018-12-01T04:09:32.954Z,30.57
2018-12-01T04:12:01.256Z,31.93
2018-12-01T04:14:29.597Z,31.47
2018-12-01T04:16:59.750Z,28.00
2018-12-01T04:19:28.031Z,29.23
2018-12-01T04:21:56.312Z,29.13
2018-12-01T04:24:24.590Z,31.83
2018-12-01T04:26:52.910Z,28.17
2018-12-01T04:29:21.188Z,28.47
2018-12-01T04:31:49.512Z,32.60
2018-12-01T04:34:21.945Z,25.80
2018-12-01T04:36:50.613Z,25.87
2018-12-01T04:39:19.200Z,28.93
2018-12-01T04:41:47.549Z,27.23
2018-12-01T04:44:15.814Z,34.03
2018-12-01T04:46:44.131Z,31.00
2018-12-01T04:49:12.404Z,30.90
2018-12-01T04:51:40.712Z,23.37
2018-12-01T04:54:09.026Z,31.27
2018-12-01T04:56:37.463Z,26.70
2018-12-01T04:59:05.943Z,28.67
2018-12-01T05:01:34.239Z,28.53
2018-12-01T05:04:02.582Z,27.20
2018-12-01T05:06:30.918Z,25.70
2018-12-01T05:08:59.170Z,27.27
2018-12-01T05:11:27.530Z,28.10
2018-12-01T05:13:55.815Z,28.30
2018-12-01T05:16:24.133Z,27.43
2018-12-01T05:21:45.113Z,31.73
2018-12-01T05:24:13.483Z,23.43
2018-12-01T05:26:41.940Z,24.93
2018-12-01T05:29:10.271Z,26.53
2018-12-01T05:31:38.546Z,26.80
2018-12-01T05:34:06.859Z,31.00
2018-12-01T05:36:35.145Z,37.17
2018-12-01T05:39:04.658Z,31.77
2018-12-01T05:41:34.630Z,27.57
2018-12-01T05:44:02.932Z,28.67
2018-12-01T05:46:31.260Z,23.53
2018-12-01T05:48:59.539Z,31.50
2018-12-01T05:51:28.177Z,25.13
2018-12-01T05:53:56.462Z,27.20
2018-12-01T05:56:24.760Z,29.17
2018-12-01T05:58:53.022Z,23.63
2018-12-01T06:01:21.347Z,29.10
2018-12-01T06:03:49.634Z,23.23
2018-12-01T06:06:17.908Z,26.37
2018-12-01T06:08:46.222Z,22.07
2018-12-01T06:11:14.837Z,25.07
2018-12-01T06:13:43.149Z,18.43
2018-12-01T06:16:11.532Z,22.10
2018-12-01T06:18:39.859Z,19.47
2018-12-01T06:21:14.061Z,19.87
2018-12-01T06:23:42.433Z,27.60
2018-12-01T06:26:10.696Z,18.07
2018-12-01T06:28:39.048Z,25.37
2018-12-01T06:31:07.370Z,19.40
2018-12-01T06:33:35.688Z,22.40
2018-12-01T06:36:04.757Z,22.43
2018-12-01T06:38:33.217Z,19.50
2018-12-01T06:41:01.573Z,24.03
2018-12-01T06:43:30.703Z,21.23
2018-12-01T06:45:59.030Z,22.17
2018-12-01T06:48:27.357Z,23.73
2018-12-01T06:50:55.687Z,24.03
2018-12-01T06:53:24.043Z,24.00
2018-12-01T06:55:52.327Z,23.23
2018-12-01T06:58:20.606Z,22.70
2018-12-01T07:00:48.931Z,17.20
2018-12-01T07:03:17.235Z,21.00
2018-12-01T07:05:45.597Z,18.57
2018-12-01T07:08:13.915Z,22.87
2018-12-01T07:10:42.198Z,22.77
2018-12-01T07:13:10.464Z,21.07
2018-12-01T07:15:39.658Z,22.70
2018-12-01T07:18:19.313Z,24.63
2018-12-01T07:20:47.649Z,26.77
2018-12-01T07:23:17.023Z,19.13
2018-12-01T07:25:44.280Z,17.97
2018-12-01T07:28:12.587Z,17.80
2018-12-01T07:30:41.208Z,24.37
2018-12-01T07:33:09.488Z,27.53
2018-12-01T07:35:37.853Z,21.03
2018-12-01T07:38:06.473Z,24.80
2018-12-01T07:40:34.775Z,24.47
2018-12-01T07:43:03.088Z,24.93
2018-12-01T07:45:31.566Z,27.63
2018-12-01T07:47:59.876Z,21.13
2018-12-01T07:50:28.190Z,26.47
2018-12-01T07:52:56.484Z,23.00
2018-12-01T07:55:24.816Z,25.77
2018-12-01T07:57:53.135Z,26.33
2018-12-01T08:00:21.477Z,22.17
2018-12-01T08:02:50.396Z,25.20
2018-12-01T08:05:18.772Z,23.53
2018-12-01T08:07:47.348Z,23.63
2018-12-01T08:10:16.256Z,23.43
2018-12-01T08:12:44.751Z,30.00
2018-12-01T08:15:16.894Z,26.30
2018-12-01T08:17:45.574Z,29.03
2018-12-01T08:20:15.253Z,29.30
2018-12-01T08:22:43.676Z,21.70
2018-12-01T08:25:14.146Z,24.10
2018-12-01T08:27:42.458Z,27.33
2018-12-01T08:30:13.707Z,26.50
2018-12-01T08:32:42.072Z,28.97
2018-12-01T08:35:10.424Z,25.60
2018-12-01T08:37:38.738Z,28.83
2018-12-01T08:40:09.426Z,25.20
2018-12-01T08:42:37.861Z,26.33
2018-12-01T08:45:09.913Z,25.17
2018-12-01T08:47:38.506Z,25.23
2018-12-01T08:50:10.267Z,26.67
2018-12-01T08:52:38.649Z,28.13
2018-12-01T08:55:08.922Z,30.50
2018-12-01T08:57:37.346Z,28.33
2018-12-01T09:00:11.574Z,28.97
2018-12-01T09:02:39.983Z,26.47
2018-12-01T09:05:08.433Z,26.20
2018-12-01T09:07:36.900Z,24.90
2018-12-01T09:10:07.262Z,25.40
2018-12-01T09:12:35.686Z,24.20
2018-12-01T09:15:05.046Z,26.70
2018-12-01T09:17:33.336Z,32.43
2018-12-01T09:20:01.620Z,22.53
2018-12-01T09:22:29.972Z,21.30
2018-12-01T09:24:58.363Z,20.03
2018-12-01T09:27:26.769Z,21.90
2018-12-01T09:29:55.257Z,17.27
2018-12-01T09:32:23.699Z,22.07
2018-12-01T09:34:52.104Z,21.50
2018-12-01T09:37:20.426Z,19.80
2018-12-01T09:39:48.746Z,16.83
2018-12-01T09:42:17.058Z,24.50
2018-12-01T09:44:45.409Z,22.67
2018-12-01T09:47:13.798Z,17.90
2018-12-01T09:49:42.202Z,22.63
2018-12-01T09:52:10.538Z,13.77
2018-12-01T09:54:38.974Z,21.40
2018-12-01T09:57:07.334Z,21.57
2018-12-01T09:59:35.666Z,18.70
2018-12-01T10:02:04.054Z,21.03
2018-12-01T10:04:32.382Z,15.60
2018-12-01T10:07:00.719Z,16.20
2018-12-01T10:09:29.087Z,18.90
2018-12-01T10:11:57.799Z,17.67
2018-12-01T10:14:26.461Z,20.53
2018-12-01T10:16:54.802Z,18.27
2018-12-01T10:19:23.118Z,14.93
2018-12-01T10:21:51.485Z,15.50
2018-12-01T10:24:19.777Z,15.13
2018-12-01T10:26:48.065Z,14.53
2018-12-01T10:29:16.540Z,14.80
2018-12-01T10:31:46.598Z,15.77
2018-12-01T10:34:14.931Z,17.47
2018-12-01T10:36:43.277Z,15.47
2018-12-01T10:39:11.629Z,16.73
2018-12-01T10:41:40.039Z,18.30
2018-12-01T10:44:08.374Z,15.60
2018-12-01T10:46:36.775Z,18.00
2018-12-01T10:49:05.234Z,13.77
2018-12-01T10:51:33.596Z,18.13
2018-12-01T10:54:02.190Z,17.17
2018-12-01T10:56:30.579Z,16.83
2018-12-01T10:58:58.931Z,15.70
2018-12-01T11:01:32.812Z,17.47
2018-12-01T11:04:05.652Z,11.23
2018-12-01T11:06:34.106Z,14.70
2018-12-01T11:09:02.773Z,12.20
2018-12-01T11:11:31.071Z,9.93
2018-12-01T11:13:59.502Z,14.40
2018-12-01T11:16:27.773Z,14.37
2018-12-01T11:18:56.108Z,14.07
2018-12-01T11:21:24.776Z,15.67
2018-12-01T11:23:53.062Z,14.30
2018-12-01T11:26:21.383Z,13.43
2018-12-01T11:28:49.687Z,16.83
2018-12-01T11:31:19.205Z,19.37
2018-12-01T11:33:47.624Z,15.77
2018-12-01T11:36:15.967Z,15.63
2018-12-01T11:38:44.353Z,19.40
2018-12-01T11:41:12.670Z,17.17
2018-12-01T11:43:40.946Z,19.80
2018-12-01T11:46:09.347Z,14.47
2018-12-01T11:48:37.663Z,16.23
2018-12-01T11:51:06.128Z,20.97
2018-12-01T11:53:35.425Z,15.40
2018-12-01T11:56:04.907Z,18.77
2018-12-01T11:58:33.255Z,19.13
2018-12-01T12:01:01.579Z,21.63
2018-12-01T12:03:29.884Z,18.77
2018-12-01T12:05:58.197Z,19.73
2018-12-01T12:08:27.343Z,15.60
2018-12-01T12:10:55.845Z,20.13
2018-12-01T12:13:25.871Z,16.17
2018-12-01T12:15:54.208Z,17.50
2018-12-01T12:18:22.696Z,14.37
2018-12-01T12:20:51.034Z,17.00
2018-12-01T12:23:20.244Z,17.23
2018-12-01T12:25:48.556Z,15.13
2018-12-01T12:28:16.879Z,14.33
2018-12-01T12:30:45.574Z,18.60
2018-12-01T12:33:13.963Z,14.93
2018-12-01T12:35:42.394Z,15.40
2018-12-01T12:38:11.152Z,17.27
2018-12-01T12:40:39.544Z,19.43
2018-12-01T12:43:08.012Z,14.77
2018-12-01T12:45:36.713Z,19.53
2018-12-01T12:48:06.276Z,15.63
2018-12-01T12:50:34.680Z,17.30
2018-12-01T12:53:03.056Z,18.50
2018-12-01T12:55:31.410Z,15.70
2018-12-01T12:57:59.700Z,19.37
2018-12-01T13:00:28.547Z,17.83
2018-12-01T13:02:59.843Z,16.20
2018-12-01T13:05:31.490Z,20.97
2018-12-01T13:07:59.789Z,15.10
2018-12-01T13:10:28.245Z,16.73
2018-12-01T13:12:56.589Z,17.50
2018-12-01T13:15:25.176Z,17.07
2018-12-01T13:17:54.093Z,19.80
2018-12-01T13:20:23.865Z,13.97
2018-12-01T13:22:54.341Z,16.97
2018-12-01T13:25:22.689Z,15.20
2018-12-01T13:28:13.530Z,15.67
2018-12-01T13:30:43.632Z,17.23
2018-12-01T13:33:12.014Z,18.20
2018-12-01T13:35:40.351Z,18.70
2018-12-01T13:38:08.774Z,18.87
2018-12-01T13:40:37.360Z,18.57
2018-12-01T13:43:06.358Z,19.27
2018-12-01T13:45:34.759Z,15.83
2018-12-01T13:48:03.085Z,19.60
2018-12-01T13:50:32.255Z,18.33
2018-12-01T13:53:02.036Z,16.77
2018-12-01T13:55:30.331Z,19.37
2018-12-01T13:57:58.730Z,16.53
2018-12-01T14:00:27.677Z,19.70
2018-12-01T14:02:56.010Z,17.70
2018-12-01T14:05:24.350Z,16.20
2018-12-01T14:07:53.012Z,15.47
2018-12-01T14:10:34.844Z,15.40
2018-12-01T14:13:04.871Z,15.23
2018-12-01T14:15:33.507Z,13.47
2018-12-01T14:18:02.002Z,19.43
2018-12-01T14:20:30.358Z,14.83
2018-12-01T14:22:58.683Z,18.00
2018-12-01T14:25:26.977Z,17.40
2018-12-01T14:27:57.708Z,12.77
2018-12-01T14:30:26.063Z,16.43
2018-12-01T14:32:54.426Z,16.23
2018-12-01T14:35:26.089Z,18.30
2018-12-01T14:37:58.835Z,15.17
2018-12-01T14:40:27.235Z,15.13
2018-12-01T14:42:55.655Z,14.97
2018-12-01T14:45:24.314Z,15.70
2018-12-01T14:47:52.724Z,14.70
2018-12-01T14:50:21.175Z,12.53
2018-12-01T14:52:49.590Z,14.40
2018-12-01T14:55:18.292Z,13.10
2018-12-01T14:57:47.201Z,15.33
2018-12-01T15:00:20.675Z,14.00
2018-12-01T15:02:49.772Z,15.63
2018-12-01T15:05:18.153Z,16.03
2018-12-01T15:07:47.336Z,14.50
2018-12-01T15:10:17.648Z,12.10
2018-12-01T15:12:46.075Z,15.43
2018-12-01T15:15:15.789Z,14.43
2018-12-01T15:17:44.126Z,17.13
2018-12-01T15:20:14.456Z,15.13
2018-12-01T15:22:43.686Z,16.07
2018-12-01T15:25:14.220Z,13.03
2018-12-01T15:27:42.550Z,11.33
2018-12-01T15:30:14.426Z,14.27
2018-12-01T15:32:43.490Z,19.20
2018-12-01T15:35:13.096Z,15.10
2018-12-01T15:37:42.284Z,15.70
2018-12-01T15:40:12.386Z,14.23
2018-12-01T15:42:40.959Z,15.63
2018-12-01T15:45:11.248Z,12.27
2018-12-01T15:47:39.625Z,16.67
2018-12-01T15:50:10.191Z,13.70
2018-12-01T15:52:38.799Z,13.73
2018-12-01T15:55:08.954Z,13.67
2018-12-01T15:57:37.411Z,20.60
2018-12-01T16:00:14.365Z,17.93
2018-12-01T16:02:42.758Z,13.27
2018-12-01T16:05:11.930Z,13.10
2018-12-01T16:07:40.515Z,16.00
2018-12-01T16:10:11.273Z,15.27
2018-12-01T16:12:40.243Z,13.33
2018-12-01T16:15:18.446Z,18.33
2018-12-01T16:17:47.719Z,17.23
2018-12-01T16:20:20.676Z,15.17
2018-12-01T16:22:49.843Z,10.80
2018-12-01T16:25:20.256Z,14.83
2018-12-01T16:27:51.410Z,10.80
2018-12-01T16:30:24.067Z,11.80
2018-12-01T16:32:54.875Z,11.10
2018-12-01T16:35:24.129Z,9.93
2018-12-01T16:37:53.302Z,12.97
2018-12-01T16:40:25.215Z,13.73
2018-12-01T16:42:55.359Z,10.03
2018-12-01T16:45:24.446Z,11.97
2018-12-01T16:47:53.468Z,14.03
2018-12-01T16:50:22.872Z,27.37
2018-12-01T16:52:53.320Z,25.77
2018-12-01T16:55:21.920Z,25.83
2018-12-01T16:57:50.650Z,18.07
2018-12-01T17:00:22.002Z,15.27
2018-12-01T17:02:52.918Z,12.60
2018-12-01T17:05:22.150Z,12.37
2018-12-01T17:07:50.659Z,11.77
2018-12-01T17:10:20.114Z,10.57
2018-12-01T17:12:53.633Z,10.63
2018-12-01T17:15:22.439Z,9.63
2018-12-01T17:17:50.820Z,9.10
2018-12-01T17:20:19.449Z,10.93
2018-12-01T17:22:56.185Z,11.20
2018-12-01T17:25:24.707Z,11.10
2018-12-01T17:27:54.120Z,10.70
2018-12-01T17:30:27.644Z,9.63
2018-12-01T17:32:56.819Z,10.63
2018-12-01T17:35:26.401Z,10.73
2018-12-01T17:37:57.553Z,9.43
2018-12-01T17:40:29.435Z,8.97
2018-12-01T17:42:58.966Z,8.87
2018-12-01T17:45:27.352Z,8.43
2018-12-01T17:47:55.818Z,10.60
2018-12-01T17:50:24.747Z,8.53
2018-12-01T17:52:55.277Z,10.20
2018-12-01T17:55:24.831Z,9.93
2018-12-01T17:57:54.250Z,11.50
2018-12-01T18:00:25.599Z,9.87
2018-12-01T18:02:56.909Z,10.17
2018-12-01T18:05:35.905Z,11.07
2018-12-01T18:08:05.879Z,11.67
2018-12-01T18:10:35.579Z,14.43
2018-12-01T18:13:04.338Z,12.07
2018-12-01T18:15:32.651Z,13.80
2018-12-01T18:18:00.991Z,14.10
2018-12-01T18:20:29.631Z,13.77
2018-12-01T18:23:02.013Z,14.83
2018-12-01T18:25:33.133Z,14.83
2018-12-01T18:28:01.810Z,13.83
2018-12-01T18:30:36.858Z,14.50
2018-12-01T18:33:08.201Z,16.87
2018-12-01T18:35:37.032Z,14.73
2018-12-01T18:38:06.352Z,16.73
2018-12-01T18:40:35.103Z,14.53
2018-12-01T18:43:03.631Z,15.33
2018-12-01T18:45:32.230Z,16.23
2018-12-01T18:48:01.931Z,16.17
2018-12-01T18:50:31.317Z,15.23
2018-12-01T18:53:02.346Z,17.80
2018-12-01T18:55:33.006Z,15.33
2018-12-01T18:58:01.742Z,16.13
2018-12-01T19:00:33.715Z,16.00
2018-12-01T19:03:02.141Z,16.10
2018-12-01T19:05:32.646Z,17.00
2018-12-01T19:08:01.210Z,15.93
2018-12-01T19:10:30.688Z,18.70
2018-12-01T19:12:59.983Z,17.90
2018-12-01T19:15:29.008Z,18.20
2018-12-01T19:17:57.859Z,21.37
2018-12-01T19:20:26.345Z,18.27
2018-12-01T19:22:54.812Z,17.73
2018-12-01T19:25:23.923Z,18.63
2018-12-01T19:27:53.635Z,19.73
2018-12-01T19:30:22.363Z,18.80
2018-12-01T19:33:00.744Z,18.10
2018-12-01T19:35:29.226Z,18.67
2018-12-01T19:37:57.533Z,19.30
2018-12-01T19:40:29.439Z,19.70
2018-12-01T19:42:59.153Z,19.17
2018-12-01T19:45:27.982Z,19.07
2018-12-01T19:47:56.371Z,18.13
2018-12-01T19:50:28.867Z,18.00
2018-12-01T19:52:57.489Z,18.33
2018-12-01T19:55:27.045Z,20.83
2018-12-01T19:57:55.536Z,20.10
2018-12-01T20:00:29.095Z,20.40
2018-12-01T20:03:02.829Z,20.13
2018-12-01T20:05:31.360Z,18.10
2018-12-01T20:07:59.970Z,17.73
2018-12-01T20:10:36.325Z,17.43
2018-12-01T20:13:10.437Z,17.10
2018-12-01T20:15:44.214Z,18.70
2018-12-01T20:18:17.084Z,18.83
2018-12-01T20:20:46.189Z,17.67
2018-12-01T20:23:15.024Z,16.10
2018-12-01T20:25:44.181Z,15.87
2018-12-01T20:28:12.785Z,16.63
2018-12-01T20:30:41.319Z,16.40
2018-12-01T20:33:09.858Z,15.37
2018-12-01T20:35:48.398Z,15.03
2018-12-01T20:38:20.879Z,13.80
2018-12-01T20:40:49.253Z,16.03
2018-12-01T20:43:23.148Z,15.23
2018-12-01T20:45:52.653Z,13.87
2018-12-01T20:48:21.117Z,14.93
2018-12-01T20:50:49.483Z,15.23
2018-12-01T20:53:17.867Z,13.90
2018-12-01T20:55:58.159Z,16.57
2018-12-01T20:58:28.641Z,14.87
2018-12-01T21:01:00.207Z,16.47
2018-12-01T21:03:28.656Z,17.00
2018-12-01T21:05:57.177Z,14.93
2018-12-01T21:08:27.997Z,16.50
2018-12-01T21:10:57.530Z,18.13
2018-12-01T21:13:25.876Z,15.43
2018-12-01T21:15:54.497Z,18.13
2018-12-01T21:18:23.111Z,20.13
2018-12-01T21:20:51.439Z,17.10
2018-12-01T21:23:20.794Z,17.73
2018-12-01T21:25:49.192Z,19.03
2018-12-01T21:28:17.547Z,20.30
2018-12-01T21:30:47.317Z,16.03
2018-12-01T21:33:28.138Z,20.00
2018-12-01T21:35:56.568Z,20.37
2018-12-01T21:38:25.313Z,22.00
2018-12-01T21:40:53.703Z,21.57
2018-12-01T21:43:22.164Z,20.27
2018-12-01T21:45:50.741Z,24.43
2018-12-01T21:48:19.121Z,22.60
2018-12-01T21:50:48.760Z,23.27
2018-12-01T21:53:23.277Z,20.40
2018-12-01T21:58:48.525Z,22.80
2018-12-01T22:01:27.595Z,21.77
2018-12-01T22:03:56.626Z,22.37
2018-12-01T22:06:25.281Z,21.63
2018-12-01T22:08:54.204Z,22.17
2018-12-01T22:11:22.745Z,21.40
2018-12-01T22:13:51.069Z,21.53
2018-12-01T22:16:19.511Z,20.63
2018-12-01T22:21:16.460Z,21.83
2018-12-01T22:23:44.838Z,20.67
2018-12-01T22:26:14.019Z,21.43
2018-12-01T22:28:42.369Z,22.20
2018-12-01T22:31:10.904Z,18.67
2018-12-01T22:33:39.365Z,22.20
2018-12-01T22:36:07.875Z,20.40
2018-12-01T22:38:36.763Z,19.47
2018-12-01T22:41:05.866Z,22.87
2018-12-01T22:43:34.182Z,19.00
2018-12-01T22:46:02.528Z,20.13
2018-12-01T22:48:31.006Z,20.60
2018-12-01T22:51:00.233Z,21.60
2018-12-01T22:53:28.847Z,19.80
2018-12-01T22:55:57.612Z,20.77
2018-12-01T22:58:26.128Z,19.17
2018-12-01T23:00:57.793Z,20.70
2018-12-01T23:03:28.048Z,21.20
2018-12-01T23:05:56.845Z,21.80
2018-12-01T23:08:26.997Z,18.07
2018-12-01T23:10:55.998Z,20.43
2018-12-01T23:13:24.358Z,21.17
2018-12-01T23:15:53.129Z,22.23
2018-12-01T23:18:22.835Z,22.17
2018-12-01T23:20:54.363Z,20.93
2018-12-01T23:23:22.915Z,19.27
2018-12-01T23:25:52.900Z,19.53
2018-12-01T23:28:21.214Z,18.57
2018-12-01T23:30:52.409Z,19.83
2018-12-01T23:33:22.370Z,17.27
2018-12-01T23:35:51.450Z,18.80
2018-12-01T23:38:21.526Z,18.20
2018-12-01T23:43:43.099Z,19.00
2018-12-01T23:46:11.562Z,18.67
2018-12-01T23:48:39.909Z,18.43
2018-12-01T23:51:08.257Z,19.00
2018-12-01T23:53:36.624Z,20.13
2018-12-01T23:56:04.998Z,19.43
2018-12-01T23:58:33.331Z,21.77
